FW6661 Weather Reports


time (UTC)temp
F
wind
direction
speed
knots
gust
knots
rain 1hr
in
rain 24hr
in
rain mn
in
humidity
%
barometer
mb
20211017165542 62 310 0.9 1.7 0.00 0.00 0.00 46 992.7
20211017164544 62 278 0.9 1.7 0.00 0.00 0.00 40 992.7
20211017163545 61 9 0.0 0.9 0.00 0.00 0.00 40 992.8
20211017162544 62 0 1.7 1.7 0.00 0.00 0.00 40 993.0
20211017161544 63 119 0.9 0.9 0.00 0.00 0.00 39 993.0
20211017160545 62 71 1.7 2.6 0.00 0.00 0.00 40 993.0
20211017155555 62 252 0.9 1.7 0.00 0.00 0.00 45 993.1
20211017154551 61 135 0.9 1.7 0.00 0.00 0.00 50 993.2
20211017153554 60 135 0.9 0.9 0.00 0.00 0.00 47 993.3
20211017152552 59 259 0.9 0.9 0.00 0.00 0.00 49 993.4
20211017150552 59 248 0.9 0.9 0.00 0.00 0.00 50 993.3
20211017145550 58 21 0.9 0.9 0.00 0.00 0.00 50 993.4
20211017144550 57 225 0.9 0.9 0.00 0.00 0.00 52 993.5
20211017143554 56 55 0.9 0.9 0.00 0.00 0.00 55 993.6
20211017142550 56 135 0.0 0.9 0.00 0.00 0.00 56 993.6
20211017141549 56 225 0.9 1.7 0.00 0.00 0.00 52 993.6
20211017140553 56 109 0.9 0.9 0.00 0.00 0.00 54 993.6
20211017135549 55 135 0.0 0.0 0.00 0.00 0.00 57 993.6
20211017134551 55 73 0.0 0.0 0.00 0.00 0.00 58 993.7
20211017133553 54 48 0.0 0.0 0.00 0.00 0.00 63 993.7
20211017132550 53 68 0.0 0.0 0.00 0.00 0.00 68 993.8
20211017131552 52 90 0.0 0.0 0.00 0.00 0.00 74 993.8
20211017130551 50 180 0.0 0.0 0.00 0.00 0.00 77 993.8
20211017125553 49 45 0.0 0.0 0.00 0.00 0.00 84 993.8
20211017124556 48 83 0.0 0.9 0.00 0.00 0.00 88 993.7
20211017123551 47 0 0.0 0.0 0.00 0.00 0.00 87 993.6
20211017122552 47 135 0.0 0.0 0.00 0.00 0.00 86 993.5
20211017121551 47 0 0.0 0.0 0.00 0.00 0.00 85 993.4
20211017120548 47 0 0.0 0.0 0.00 0.00 0.00 86 993.3
20211017115559 47 135 0.0 0.0 0.00 0.00 0.00 83 993.4
20211017114550 47 135 0.0 0.0 0.00 0.00 0.00 85 993.2
20211017113553 47 0 0.0 0.0 0.00 0.00 0.00 84 993.2
20211017112549 46 152 0.0 0.0 0.00 0.00 0.00 84 993.3
20211017111551 47 0 0.0 0.9 0.00 0.00 0.00 84 993.3
20211017110552 47 35 0.9 0.9 0.00 0.00 0.00 83 993.1
20211017105551 47 0 0.0 0.0 0.00 0.00 0.00 81 993.2
20211017104614 48 0 0.0 0.0 0.00 0.00 0.00 79 993.0
20211017103550 48 135 0.0 0.0 0.00 0.00 0.00 79 992.8
20211017102546 48 0 0.0 0.0 0.00 0.00 0.00 79 992.8
20211017101546 49 0 0.0 0.0 0.00 0.00 0.00 75 992.7
20211017100549 50 315 0.9 0.9 0.00 0.00 0.00 75 992.7
20211017095557 49 0 0.0 0.0 0.00 0.00 0.00 76 992.7
20211017094545 49 259 0.0 0.0 0.00 0.00 0.00 74 992.8
20211017093550 49 0 0.0 0.0 0.00 0.00 0.00 73 992.8
20211017092548 49 0 0.0 0.0 0.00 0.00 0.00 76 992.8
20211017091546 49 0 0.0 0.0 0.00 0.00 0.00 74 992.8
20211017090604 49 0 0.0 0.0 0.00 0.00 0.00 73 992.8
20211017085549 49 0 0.0 0.0 0.00 0.00 0.00 72 992.8
20211017084555 49 135 0.0 0.0 0.00 0.00 0.00 70 992.8
20211017083549 50 0 0.0 0.0 0.00 0.00 0.00 72 992.6
20211017082548 49 135 0.0 0.0 0.00 0.00 0.00 73 992.6
20211017081549 50 135 0.0 0.0 0.00 0.00 0.00 76 992.4
20211017080549 50 135 0.0 0.0 0.00 0.00 0.00 72 992.4
20211017075601 50 0 0.0 0.0 0.00 0.00 0.00 66 992.4
20211017074548 51 0 0.0 0.0 0.00 0.00 0.00 70 992.4
20211017073550 52 0 0.0 0.0 0.00 0.00 0.00 71 992.3
20211017072549 52 0 0.0 0.0 0.00 0.00 0.00 62 992.3
20211017071545 52 94 0.0 0.9 0.00 0.00 0.00 66 992.4
20211017070548 52 225 0.9 0.9 0.00 0.00 0.00 71 992.4
20211017065546 52 0 0.0 0.0 0.00 0.00 0.00 73 992.5
20211017064548 53 0 0.0 0.0 0.00 0.00 0.00 75 992.4
20211017063548 52 135 0.0 0.0 0.00 0.00 0.00 70 992.5
20211017062549 52 135 0.9 0.9 0.00 0.00 0.00 79 992.4
20211017061547 52 28 0.9 0.9 0.00 0.00 0.00 78 992.4
20211017060556 52 0 0.0 0.0 0.00 0.00 0.00 78 992.3
20211017055548 53 135 0.0 0.0 0.00 0.00 0.00 76 992.2
20211017054548 53 0 0.0 0.0 0.00 0.00 0.00 75 992.3
20211017053548 53 0 0.0 0.0 0.00 0.00 0.00 75 992.3
20211017052549 52 126 0.9 1.7 0.00 0.00 0.00 73 992.0
20211017051546 53 0 0.0 0.0 0.00 0.00 0.00 77 992.1
20211017050544 53 225 0.0 0.0 0.00 0.00 0.00 74 992.0
20211017045544 54 135 0.0 0.0 0.00 0.00 0.00 72 991.8
20211017044546 53 135 0.0 0.0 0.00 0.00 0.00 78 991.8
20211017043549 53 135 0.0 0.0 0.00 0.00 0.00 82 991.8
20211017042548 53 135 0.0 0.0 0.00 0.00 0.00 80 991.6
20211017041547 52 195 0.0 0.9 0.00 0.00 0.00 86 991.8
20211017040551 52 322 0.9 0.9 0.00 0.00 0.00 88 991.7
20211017035548 51 135 0.0 0.0 0.00 0.02 0.00 87 991.8
20211017034548 53 117 0.9 0.9 0.00 0.02 0.00 85 991.5
20211017033555 51 135 0.0 0.9 0.00 0.02 0.00 89 991.6
20211017032556 52 135 0.0 0.0 0.00 0.02 0.00 89 991.6
20211017031551 51 135 0.9 1.7 0.00 0.02 0.00 88 991.3
20211017030553 52 0 0.0 0.0 0.00 0.02 0.00 86 991.5
20211017025557 52 0 0.0 0.0 0.00 0.02 0.00 82 991.3
20211017024550 52 90 0.0 0.0 0.00 0.02 0.00 82 991.4
20211017023601 52 0 0.0 0.0 0.00 0.02 0.00 84 991.3
20211017022555 53 315 0.9 0.9 0.00 0.02 0.00 82 991.3
20211017021557 53 0 0.0 0.0 0.00 0.02 0.00 77 991.1
20211017020555 54 0 0.0 0.0 0.00 0.02 0.00 75 990.9
20211017015555 54 0 0.0 0.0 0.00 0.02 0.00 75 990.8
20211017014547 55 0 0.0 0.0 0.00 0.02 0.00 69 990.8
20211017013545 56 0 0.0 0.0 0.00 0.02 0.00 69 990.6
20211017012543 57 0 0.0 0.0 0.00 0.02 0.00 61 990.6
20211017011536 57 14 0.0 0.9 0.00 0.02 0.00 66 990.5
20211017010538 57 45 0.9 1.7 0.00 0.02 0.00 60 990.3
20211017005534 58 225 0.0 0.0 0.00 0.02 0.00 65 990.2
20211017004533 59 315 0.0 0.0 0.00 0.02 0.00 56 990.0
20211017003536 60 271 0.9 0.9 0.00 0.02 0.00 52 989.9
20211017002533 60 248 0.9 1.7 0.00 0.02 0.00 52 989.7
20211017001620 61 225 1.7 1.7 0.00 0.02 0.00 47 989.5
20211017000530 60 45 1.7 2.6 0.00 0.02 0.00 50 989.3
20211016235529 60 23 0.9 0.9 0.00 0.02 0.00 58 989.3
20211016234530 60 225 1.7 2.6 0.00 0.02 0.00 54 989.0
20211016233524 60 225 0.9 0.9 0.00 0.02 0.00 57 988.8
20211016232531 61 232 0.0 0.9 0.00 0.02 0.00 52 988.4
20211016231530 61 250 1.7 1.7 0.00 0.02 0.00 52 988.2
20211016230525 61 225 0.9 1.7 0.00 0.02 0.00 58 988.1
20211016225536 61 0 0.9 1.7 0.00 0.02 0.00 58 987.8
20211016224539 62 292 0.9 0.9 0.00 0.02 0.00 52 987.7
20211016223534 62 23 0.9 1.7 0.00 0.02 0.00 62 987.5
20211016222540 63 285 0.0 0.9 0.00 0.02 0.00 55 987.3
20211016221542 63 277 0.9 0.9 0.00 0.02 0.00 52 987.2
20211016220532 63 23 1.7 1.7 0.00 0.02 0.00 57 987.0
20211016215536 64 23 0.9 1.7 0.00 0.02 0.00 52 987.0
20211016214537 64 0 0.9 2.6 0.00 0.02 0.00 56 986.9
20211016213528 65 293 0.9 1.7 0.00 0.02 0.00 57 986.7
20211016212534 65 0 0.0 0.0 0.00 0.02 0.00 61 986.5
20211016211537 66 248 0.9 0.9 0.00 0.02 0.00 62 986.2
20211016210537 66 293 0.9 0.9 0.00 0.02 0.00 63 986.1
20211016205536 65 315 0.9 0.9 0.00 0.02 0.00 69 985.9
20211016204536 66 23 0.0 0.0 0.00 0.02 0.00 73 985.5
20211016203530 67 225 0.9 0.9 0.00 0.02 0.00 75 985.3
20211016202532 68 315 0.0 0.9 0.00 0.02 0.00 71 984.9
20211016201532 68 225 0.9 0.9 0.00 0.02 0.00 78 984.6
20211016200532 68 225 0.9 1.7 0.00 0.02 0.00 70 984.3
20211016195527 67 225 0.0 0.0 0.00 0.02 0.00 89 984.2
20211016194528 67 0 0.0 0.0 0.00 0.02 0.00 98 984.0
20211016193519 67 0 0.0 0.0 0.00 0.02 0.00 97 984.1
20211016192525 66 293 0.9 0.9 0.00 0.02 0.00 96 984.1
20211016191524 65 225 0.0 0.9 0.00 0.02 0.00 100 984.1
20211016190532 65 252 0.0 0.0 0.00 0.02 0.00 100 984.1
20211016185526 65 0 0.9 0.9 0.01 0.02 0.00 100 984.1
20211016184526 65 225 0.9 0.9 0.01 0.02 0.00 100 984.0
20211016183519 65 0 0.0 0.0 0.01 0.02 0.00 100 984.3
20211016182527 65 0 0.0 0.0 0.01 0.02 0.00 100 984.2
20211016181528 65 0 0.0 0.0 0.01 0.02 0.00 100 984.1
20211016180523 64 225 0.0 0.0 0.01 0.02 0.00 100 984.0
20211016175528 64 225 0.9 0.9 0.01 0.01 0.00 100 984.4
20211016174529 64 225 0.0 0.0 0.01 0.01 0.00 100 984.0
20211016173530 65 23 0.9 0.9 0.01 0.01 0.00 99 984.0
20211016172532 66 293 0.0 0.0 0.01 0.01 0.00 100 984.0
20211016171535 67 225 0.0 0.9 0.01 0.01 0.00 100 983.9
20211016170535 69 0 0.0 0.0 0.01 0.01 0.00 100 983.5